sensor_id;sensor_type;location;lat;lon;timestamp;P1;durP1;ratioP1;P2;durP2;ratioP2
6821;SDS011;3449;48.728;8.968;2023-08-20T00:01:28;8.53;;;7.70;;
6821;SDS011;3449;48.728;8.968;2023-08-20T00:03:55;10.23;;;8.10;;
6821;SDS011;3449;48.728;8.968;2023-08-20T00:06:23;10.37;;;8.00;;
6821;SDS011;3449;48.728;8.968;2023-08-20T00:08:50;10.97;;;7.93;;
6821;SDS011;3449;48.728;8.968;2023-08-20T00:11:18;8.63;;;7.00;;
6821;SDS011;3449;48.728;8.968;2023-08-20T00:13:45;14.03;;;7.63;;
6821;SDS011;3449;48.728;8.968;2023-08-20T00:16:12;11.10;;;7.57;;
6821;SDS011;3449;48.728;8.968;2023-08-20T00:18:39;12.03;;;6.90;;
6821;SDS011;3449;48.728;8.968;2023-08-20T00:21:07;12.77;;;7.87;;
6821;SDS011;3449;48.728;8.968;2023-08-20T00:23:34;7.97;;;6.97;;
6821;SDS011;3449;48.728;8.968;2023-08-20T00:26:01;12.27;;;7.27;;
6821;SDS011;3449;48.728;8.968;2023-08-20T00:28:30;11.00;;;7.27;;
6821;SDS011;3449;48.728;8.968;2023-08-20T00:30:58;11.70;;;7.40;;
6821;SDS011;3449;48.728;8.968;2023-08-20T00:33:26;10.83;;;6.90;;
6821;SDS011;3449;48.728;8.968;2023-08-20T00:35:52;9.00;;;6.83;;
6821;SDS011;3449;48.728;8.968;2023-08-20T00:38:19;9.97;;;7.67;;
6821;SDS011;3449;48.728;8.968;2023-08-20T00:40:46;10.70;;;8.27;;
6821;SDS011;3449;48.728;8.968;2023-08-20T00:43:13;9.40;;;7.97;;
6821;SDS011;3449;48.728;8.968;2023-08-20T00:45:41;10.30;;;7.63;;
6821;SDS011;3449;48.728;8.968;2023-08-20T00:48:08;11.67;;;7.90;;
6821;SDS011;3449;48.728;8.968;2023-08-20T00:50:36;11.83;;;7.87;;
6821;SDS011;3449;48.728;8.968;2023-08-20T00:53:04;9.20;;;7.17;;
6821;SDS011;3449;48.728;8.968;2023-08-20T00:55:32;9.00;;;6.70;;
6821;SDS011;3449;48.728;8.968;2023-08-20T00:57:58;7.87;;;6.80;;
6821;SDS011;3449;48.728;8.968;2023-08-20T01:00:26;9.10;;;7.70;;
6821;SDS011;3449;48.728;8.968;2023-08-20T01:02:54;11.70;;;8.00;;
6821;SDS011;3449;48.728;8.968;2023-08-20T01:05:21;15.47;;;8.70;;
6821;SDS011;3449;48.728;8.968;2023-08-20T01:10:42;19.83;;;8.30;;
6821;SDS011;3449;48.728;8.968;2023-08-20T01:13:26;16.70;;;7.53;;
6821;SDS011;3449;48.728;8.968;2023-08-20T01:15:53;16.20;;;8.07;;
6821;SDS011;3449;48.728;8.968;2023-08-20T01:18:22;13.10;;;8.80;;
6821;SDS011;3449;48.728;8.968;2023-08-20T01:20:51;12.27;;;8.60;;
6821;SDS011;3449;48.728;8.968;2023-08-20T01:23:29;15.60;;;8.10;;
6821;SDS011;3449;48.728;8.968;2023-08-20T01:26:21;12.17;;;8.97;;
6821;SDS011;3449;48.728;8.968;2023-08-20T01:29:03;11.07;;;8.67;;
6821;SDS011;3449;48.728;8.968;2023-08-20T01:31:32;13.27;;;8.53;;
6821;SDS011;3449;48.728;8.968;2023-08-20T01:33:59;11.03;;;8.50;;
6821;SDS011;3449;48.728;8.968;2023-08-20T01:36:27;10.10;;;8.33;;
6821;SDS011;3449;48.728;8.968;2023-08-20T01:38:54;10.10;;;8.20;;
6821;SDS011;3449;48.728;8.968;2023-08-20T01:41:20;12.90;;;7.60;;
6821;SDS011;3449;48.728;8.968;2023-08-20T01:43:47;9.87;;;7.93;;
6821;SDS011;3449;48.728;8.968;2023-08-20T01:46:16;18.03;;;8.70;;
6821;SDS011;3449;48.728;8.968;2023-08-20T01:48:42;11.00;;;8.50;;
6821;SDS011;3449;48.728;8.968;2023-08-20T01:51:09;12.20;;;8.87;;
6821;SDS011;3449;48.728;8.968;2023-08-20T01:53:36;10.87;;;8.80;;
6821;SDS011;3449;48.728;8.968;2023-08-20T01:56:03;12.97;;;9.17;;
6821;SDS011;3449;48.728;8.968;2023-08-20T01:58:30;13.17;;;8.03;;
6821;SDS011;3449;48.728;8.968;2023-08-20T02:00:57;11.60;;;9.10;;
6821;SDS011;3449;48.728;8.968;2023-08-20T02:03:25;14.40;;;9.70;;
6821;SDS011;3449;48.728;8.968;2023-08-20T02:05:52;11.20;;;8.73;;
6821;SDS011;3449;48.728;8.968;2023-08-20T02:08:19;12.97;;;9.40;;
6821;SDS011;3449;48.728;8.968;2023-08-20T02:10:46;20.23;;;9.60;;
6821;SDS011;3449;48.728;8.968;2023-08-20T02:13:13;18.10;;;7.70;;
6821;SDS011;3449;48.728;8.968;2023-08-20T02:15:39;13.60;;;9.20;;
6821;SDS011;3449;48.728;8.968;2023-08-20T02:18:06;12.30;;;9.80;;
6821;SDS011;3449;48.728;8.968;2023-08-20T02:20:34;13.97;;;10.87;;
6821;SDS011;3449;48.728;8.968;2023-08-20T02:23:01;10.67;;;8.90;;
6821;SDS011;3449;48.728;8.968;2023-08-20T02:25:28;14.87;;;9.80;;
6821;SDS011;3449;48.728;8.968;2023-08-20T02:27:55;11.00;;;9.20;;
6821;SDS011;3449;48.728;8.968;2023-08-20T02:30:22;13.50;;;9.30;;
6821;SDS011;3449;48.728;8.968;2023-08-20T02:32:49;10.23;;;8.90;;
6821;SDS011;3449;48.728;8.968;2023-08-20T02:35:15;9.70;;;7.10;;
6821;SDS011;3449;48.728;8.968;2023-08-20T02:37:44;13.00;;;8.20;;
6821;SDS011;3449;48.728;8.968;2023-08-20T02:40:11;9.77;;;7.83;;
6821;SDS011;3449;48.728;8.968;2023-08-20T02:42:39;10.00;;;8.37;;
6821;SDS011;3449;48.728;8.968;2023-08-20T02:45:06;12.93;;;8.50;;
6821;SDS011;3449;48.728;8.968;2023-08-20T02:47:34;14.90;;;9.10;;
6821;SDS011;3449;48.728;8.968;2023-08-20T02:50:01;12.20;;;9.20;;
6821;SDS011;3449;48.728;8.968;2023-08-20T02:52:29;13.03;;;9.40;;
6821;SDS011;3449;48.728;8.968;2023-08-20T02:54:57;16.90;;;9.53;;
6821;SDS011;3449;48.728;8.968;2023-08-20T02:57:24;9.00;;;7.80;;
6821;SDS011;3449;48.728;8.968;2023-08-20T02:59:51;10.50;;;8.40;;
6821;SDS011;3449;48.728;8.968;2023-08-20T03:02:18;13.40;;;8.70;;
6821;SDS011;3449;48.728;8.968;2023-08-20T03:04:45;11.97;;;8.63;;
6821;SDS011;3449;48.728;8.968;2023-08-20T03:07:11;16.83;;;9.07;;
6821;SDS011;3449;48.728;8.968;2023-08-20T03:09:38;10.77;;;8.20;;
6821;SDS011;3449;48.728;8.968;2023-08-20T03:12:07;13.30;;;8.63;;
6821;SDS011;3449;48.728;8.968;2023-08-20T03:14:34;14.10;;;8.57;;
6821;SDS011;3449;48.728;8.968;2023-08-20T03:17:00;13.83;;;8.93;;
6821;SDS011;3449;48.728;8.968;2023-08-20T03:19:29;12.07;;;9.60;;
6821;SDS011;3449;48.728;8.968;2023-08-20T03:21:59;12.53;;;9.80;;
6821;SDS011;3449;48.728;8.968;2023-08-20T03:24:26;10.10;;;8.27;;
6821;SDS011;3449;48.728;8.968;2023-08-20T03:26:53;17.30;;;9.00;;
6821;SDS011;3449;48.728;8.968;2023-08-20T03:29:21;10.30;;;8.40;;
6821;SDS011;3449;48.728;8.968;2023-08-20T03:31:48;12.67;;;8.93;;
6821;SDS011;3449;48.728;8.968;2023-08-20T03:34:14;17.73;;;9.30;;
6821;SDS011;3449;48.728;8.968;2023-08-20T03:36:41;13.00;;;9.40;;
6821;SDS011;3449;48.728;8.968;2023-08-20T03:39:08;17.70;;;9.77;;
6821;SDS011;3449;48.728;8.968;2023-08-20T03:41:35;12.13;;;9.30;;
6821;SDS011;3449;48.728;8.968;2023-08-20T03:44:02;12.23;;;9.03;;
6821;SDS011;3449;48.728;8.968;2023-08-20T03:46:31;17.13;;;9.27;;
6821;SDS011;3449;48.728;8.968;2023-08-20T03:48:58;18.07;;;10.07;;
6821;SDS011;3449;48.728;8.968;2023-08-20T03:51:25;13.43;;;9.47;;
6821;SDS011;3449;48.728;8.968;2023-08-20T03:53:52;12.93;;;9.93;;
6821;SDS011;3449;48.728;8.968;2023-08-20T03:56:18;11.30;;;9.30;;
6821;SDS011;3449;48.728;8.968;2023-08-20T03:58:45;13.77;;;8.03;;
6821;SDS011;3449;48.728;8.968;2023-08-20T04:01:12;11.50;;;8.13;;
6821;SDS011;3449;48.728;8.968;2023-08-20T04:03:40;10.17;;;8.63;;
6821;SDS011;3449;48.728;8.968;2023-08-20T04:06:07;17.30;;;9.63;;
6821;SDS011;3449;48.728;8.968;2023-08-20T04:08:34;10.60;;;8.50;;
6821;SDS011;3449;48.728;8.968;2023-08-20T04:11:01;15.93;;;8.23;;
6821;SDS011;3449;48.728;8.968;2023-08-20T04:13:28;10.40;;;8.50;;
6821;SDS011;3449;48.728;8.968;2023-08-20T04:15:55;13.80;;;8.53;;
6821;SDS011;3449;48.728;8.968;2023-08-20T04:18:22;12.77;;;9.17;;
6821;SDS011;3449;48.728;8.968;2023-08-20T04:20:51;15.23;;;8.77;;
6821;SDS011;3449;48.728;8.968;2023-08-20T04:23:18;13.50;;;8.70;;
6821;SDS011;3449;48.728;8.968;2023-08-20T04:25:45;12.10;;;8.77;;
6821;SDS011;3449;48.728;8.968;2023-08-20T04:28:12;13.00;;;8.60;;
6821;SDS011;3449;48.728;8.968;2023-08-20T04:30:39;12.27;;;8.43;;
6821;SDS011;3449;48.728;8.968;2023-08-20T04:33:06;13.37;;;8.80;;
6821;SDS011;3449;48.728;8.968;2023-08-20T04:35:33;12.13;;;8.57;;
6821;SDS011;3449;48.728;8.968;2023-08-20T04:38:01;11.00;;;8.00;;
6821;SDS011;3449;48.728;8.968;2023-08-20T04:40:28;12.00;;;8.23;;
6821;SDS011;3449;48.728;8.968;2023-08-20T04:42:56;13.33;;;8.77;;
6821;SDS011;3449;48.728;8.968;2023-08-20T04:45:23;11.40;;;8.27;;
6821;SDS011;3449;48.728;8.968;2023-08-20T04:47:50;9.70;;;8.20;;
6821;SDS011;3449;48.728;8.968;2023-08-20T04:50:17;10.10;;;7.57;;
6821;SDS011;3449;48.728;8.968;2023-08-20T04:52:43;16.90;;;9.50;;
6821;SDS011;3449;48.728;8.968;2023-08-20T04:55:12;17.60;;;9.97;;
6821;SDS011;3449;48.728;8.968;2023-08-20T04:57:40;12.00;;;8.90;;
6821;SDS011;3449;48.728;8.968;2023-08-20T05:00:07;12.07;;;9.03;;
6821;SDS011;3449;48.728;8.968;2023-08-20T05:02:35;14.00;;;8.87;;
6821;SDS011;3449;48.728;8.968;2023-08-20T05:05:02;10.97;;;8.40;;
6821;SDS011;3449;48.728;8.968;2023-08-20T05:07:29;11.90;;;9.20;;
6821;SDS011;3449;48.728;8.968;2023-08-20T05:09:57;13.00;;;8.63;;
6821;SDS011;3449;48.728;8.968;2023-08-20T05:12:25;12.97;;;8.90;;
6821;SDS011;3449;48.728;8.968;2023-08-20T05:14:52;12.43;;;8.57;;
6821;SDS011;3449;48.728;8.968;2023-08-20T05:17:19;14.37;;;8.70;;
6821;SDS011;3449;48.728;8.968;2023-08-20T05:19:45;16.10;;;9.60;;
6821;SDS011;3449;48.728;8.968;2023-08-20T05:22:12;12.70;;;9.40;;
6821;SDS011;3449;48.728;8.968;2023-08-20T05:24:39;13.23;;;9.10;;
6821;SDS011;3449;48.728;8.968;2023-08-20T05:27:06;13.00;;;9.30;;
6821;SDS011;3449;48.728;8.968;2023-08-20T05:29:36;13.57;;;9.07;;
6821;SDS011;3449;48.728;8.968;2023-08-20T05:32:03;17.80;;;8.20;;
6821;SDS011;3449;48.728;8.968;2023-08-20T05:34:31;12.77;;;9.60;;
6821;SDS011;3449;48.728;8.968;2023-08-20T05:36:57;13.33;;;10.60;;
6821;SDS011;3449;48.728;8.968;2023-08-20T05:39:24;13.83;;;9.30;;
6821;SDS011;3449;48.728;8.968;2023-08-20T05:41:51;16.97;;;9.03;;
6821;SDS011;3449;48.728;8.968;2023-08-20T05:44:18;14.90;;;9.10;;
6821;SDS011;3449;48.728;8.968;2023-08-20T05:46:46;12.20;;;9.33;;
6821;SDS011;3449;48.728;8.968;2023-08-20T05:49:13;11.87;;;9.23;;
6821;SDS011;3449;48.728;8.968;2023-08-20T05:51:41;14.57;;;9.90;;
6821;SDS011;3449;48.728;8.968;2023-08-20T05:54:08;14.87;;;10.00;;
6821;SDS011;3449;48.728;8.968;2023-08-20T05:56:35;13.80;;;9.77;;
6821;SDS011;3449;48.728;8.968;2023-08-20T05:59:02;13.50;;;8.83;;
6821;SDS011;3449;48.728;8.968;2023-08-20T06:01:29;11.93;;;8.63;;
6821;SDS011;3449;48.728;8.968;2023-08-20T06:03:57;13.10;;;9.00;;
6821;SDS011;3449;48.728;8.968;2023-08-20T06:06:24;10.03;;;8.47;;
6821;SDS011;3449;48.728;8.968;2023-08-20T06:08:51;11.33;;;8.70;;
6821;SDS011;3449;48.728;8.968;2023-08-20T06:11:18;13.50;;;8.80;;
6821;SDS011;3449;48.728;8.968;2023-08-20T06:13:45;13.23;;;8.60;;
6821;SDS011;3449;48.728;8.968;2023-08-20T06:16:12;9.17;;;7.83;;
6821;SDS011;3449;48.728;8.968;2023-08-20T06:18:39;12.30;;;8.80;;
6821;SDS011;3449;48.728;8.968;2023-08-20T06:21:07;13.80;;;8.77;;
6821;SDS011;3449;48.728;8.968;2023-08-20T06:23:34;11.07;;;9.27;;
6821;SDS011;3449;48.728;8.968;2023-08-20T06:26:01;15.80;;;9.73;;
6821;SDS011;3449;48.728;8.968;2023-08-20T06:28:28;11.77;;;9.10;;
6821;SDS011;3449;48.728;8.968;2023-08-20T06:30:55;10.27;;;8.10;;
6821;SDS011;3449;48.728;8.968;2023-08-20T06:33:22;13.77;;;9.13;;
6821;SDS011;3449;48.728;8.968;2023-08-20T06:35:49;14.57;;;7.97;;
6821;SDS011;3449;48.728;8.968;2023-08-20T06:38:17;11.10;;;8.17;;
6821;SDS011;3449;48.728;8.968;2023-08-20T06:40:44;19.47;;;9.60;;
6821;SDS011;3449;48.728;8.968;2023-08-20T06:43:11;11.13;;;7.50;;
6821;SDS011;3449;48.728;8.968;2023-08-20T06:45:38;10.50;;;8.00;;
6821;SDS011;3449;48.728;8.968;2023-08-20T06:48:05;12.40;;;8.40;;
6821;SDS011;3449;48.728;8.968;2023-08-20T06:50:32;15.33;;;8.33;;
6821;SDS011;3449;48.728;8.968;2023-08-20T06:52:59;11.83;;;8.50;;
6821;SDS011;3449;48.728;8.968;2023-08-20T06:55:27;15.87;;;8.63;;
6821;SDS011;3449;48.728;8.968;2023-08-20T06:57:54;11.93;;;8.87;;
6821;SDS011;3449;48.728;8.968;2023-08-20T07:00:20;11.27;;;9.13;;
6821;SDS011;3449;48.728;8.968;2023-08-20T07:02:48;13.50;;;8.20;;
6821;SDS011;3449;48.728;8.968;2023-08-20T07:05:14;10.70;;;7.67;;
6821;SDS011;3449;48.728;8.968;2023-08-20T07:07:42;10.83;;;9.27;;
6821;SDS011;3449;48.728;8.968;2023-08-20T07:10:09;16.03;;;9.33;;
6821;SDS011;3449;48.728;8.968;2023-08-20T07:12:37;10.63;;;8.53;;
6821;SDS011;3449;48.728;8.968;2023-08-20T07:15:04;11.50;;;9.27;;
6821;SDS011;3449;48.728;8.968;2023-08-20T07:17:32;17.73;;;9.43;;
6821;SDS011;3449;48.728;8.968;2023-08-20T07:19:59;9.60;;;8.50;;
6821;SDS011;3449;48.728;8.968;2023-08-20T07:22:25;11.60;;;7.90;;
6821;SDS011;3449;48.728;8.968;2023-08-20T07:24:52;13.43;;;9.00;;
6821;SDS011;3449;48.728;8.968;2023-08-20T07:27:19;13.30;;;10.33;;
6821;SDS011;3449;48.728;8.968;2023-08-20T07:29:48;11.50;;;9.23;;
6821;SDS011;3449;48.728;8.968;2023-08-20T07:32:14;11.80;;;8.63;;
6821;SDS011;3449;48.728;8.968;2023-08-20T07:34:41;14.57;;;9.20;;
6821;SDS011;3449;48.728;8.968;2023-08-20T07:37:08;12.33;;;9.90;;
6821;SDS011;3449;48.728;8.968;2023-08-20T07:39:35;10.73;;;7.90;;
6821;SDS011;3449;48.728;8.968;2023-08-20T07:42:02;12.27;;;9.10;;
6821;SDS011;3449;48.728;8.968;2023-08-20T07:44:29;14.67;;;8.93;;
6821;SDS011;3449;48.728;8.968;2023-08-20T07:46:57;11.20;;;9.50;;
6821;SDS011;3449;48.728;8.968;2023-08-20T07:49:24;13.60;;;9.17;;
6821;SDS011;3449;48.728;8.968;2023-08-20T07:51:51;13.37;;;9.13;;
6821;SDS011;3449;48.728;8.968;2023-08-20T07:54:19;12.00;;;9.07;;
6821;SDS011;3449;48.728;8.968;2023-08-20T07:56:46;11.60;;;8.30;;
6821;SDS011;3449;48.728;8.968;2023-08-20T07:59:13;8.73;;;7.20;;
6821;SDS011;3449;48.728;8.968;2023-08-20T08:01:40;15.53;;;8.83;;
6821;SDS011;3449;48.728;8.968;2023-08-20T08:04:08;11.03;;;8.60;;
6821;SDS011;3449;48.728;8.968;2023-08-20T08:06:35;12.13;;;9.07;;
6821;SDS011;3449;48.728;8.968;2023-08-20T08:09:20;12.00;;;8.53;;
6821;SDS011;3449;48.728;8.968;2023-08-20T08:11:48;11.33;;;7.90;;
6821;SDS011;3449;48.728;8.968;2023-08-20T08:14:15;11.30;;;7.87;;
6821;SDS011;3449;48.728;8.968;2023-08-20T08:16:42;13.13;;;7.20;;
6821;SDS011;3449;48.728;8.968;2023-08-20T08:19:10;13.43;;;8.07;;
6821;SDS011;3449;48.728;8.968;2023-08-20T08:21:37;11.13;;;8.83;;
6821;SDS011;3449;48.728;8.968;2023-08-20T08:24:04;10.60;;;7.70;;
6821;SDS011;3449;48.728;8.968;2023-08-20T08:26:33;15.70;;;8.53;;
6821;SDS011;3449;48.728;8.968;2023-08-20T08:29:00;11.03;;;7.90;;
6821;SDS011;3449;48.728;8.968;2023-08-20T08:31:27;15.50;;;8.20;;
6821;SDS011;3449;48.728;8.968;2023-08-20T08:33:54;9.70;;;7.77;;
6821;SDS011;3449;48.728;8.968;2023-08-20T08:36:23;10.90;;;7.70;;
6821;SDS011;3449;48.728;8.968;2023-08-20T08:38:50;13.00;;;8.50;;
6821;SDS011;3449;48.728;8.968;2023-08-20T08:41:17;11.80;;;7.80;;
6821;SDS011;3449;48.728;8.968;2023-08-20T08:43:48;12.77;;;7.30;;
6821;SDS011;3449;48.728;8.968;2023-08-20T08:46:15;11.77;;;6.53;;
6821;SDS011;3449;48.728;8.968;2023-08-20T08:48:43;8.17;;;6.80;;
6821;SDS011;3449;48.728;8.968;2023-08-20T08:51:11;7.70;;;6.87;;
6821;SDS011;3449;48.728;8.968;2023-08-20T08:53:39;15.10;;;6.83;;
6821;SDS011;3449;48.728;8.968;2023-08-20T08:56:09;9.63;;;6.90;;
6821;SDS011;3449;48.728;8.968;2023-08-20T08:58:36;13.83;;;7.17;;
6821;SDS011;3449;48.728;8.968;2023-08-20T09:01:03;6.33;;;5.73;;
6821;SDS011;3449;48.728;8.968;2023-08-20T09:03:30;8.80;;;6.43;;
6821;SDS011;3449;48.728;8.968;2023-08-20T09:05:58;8.10;;;6.17;;
6821;SDS011;3449;48.728;8.968;2023-08-20T09:08:28;7.90;;;6.30;;
6821;SDS011;3449;48.728;8.968;2023-08-20T09:10:59;7.60;;;6.23;;
6821;SDS011;3449;48.728;8.968;2023-08-20T09:13:32;8.03;;;6.10;;
6821;SDS011;3449;48.728;8.968;2023-08-20T09:16:02;9.97;;;5.37;;
6821;SDS011;3449;48.728;8.968;2023-08-20T09:18:30;8.87;;;5.83;;
6821;SDS011;3449;48.728;8.968;2023-08-20T09:20:58;10.77;;;5.93;;
6821;SDS011;3449;48.728;8.968;2023-08-20T09:23:26;9.07;;;7.20;;
6821;SDS011;3449;48.728;8.968;2023-08-20T09:25:55;8.53;;;5.67;;
6821;SDS011;3449;48.728;8.968;2023-08-20T09:28:23;9.23;;;7.00;;
6821;SDS011;3449;48.728;8.968;2023-08-20T09:30:57;7.70;;;5.77;;
6821;SDS011;3449;48.728;8.968;2023-08-20T09:33:26;15.70;;;5.90;;
6821;SDS011;3449;48.728;8.968;2023-08-20T09:35:53;7.47;;;6.17;;
6821;SDS011;3449;48.728;8.968;2023-08-20T09:38:20;10.17;;;7.20;;
6821;SDS011;3449;48.728;8.968;2023-08-20T09:40:48;6.83;;;6.10;;
6821;SDS011;3449;48.728;8.968;2023-08-20T09:43:17;7.50;;;5.20;;
6821;SDS011;3449;48.728;8.968;2023-08-20T09:45:46;8.70;;;6.17;;
6821;SDS011;3449;48.728;8.968;2023-08-20T09:48:16;6.20;;;5.50;;
6821;SDS011;3449;48.728;8.968;2023-08-20T09:50:46;11.10;;;5.20;;
6821;SDS011;3449;48.728;8.968;2023-08-20T09:53:17;7.63;;;5.60;;
6821;SDS011;3449;48.728;8.968;2023-08-20T09:55:52;4.80;;;4.27;;
6821;SDS011;3449;48.728;8.968;2023-08-20T09:58:21;8.27;;;5.30;;
6821;SDS011;3449;48.728;8.968;2023-08-20T10:00:52;9.00;;;5.57;;
6821;SDS011;3449;48.728;8.968;2023-08-20T10:03:19;7.23;;;5.67;;
6821;SDS011;3449;48.728;8.968;2023-08-20T10:05:48;7.90;;;4.40;;
6821;SDS011;3449;48.728;8.968;2023-08-20T10:08:15;6.50;;;4.77;;
6821;SDS011;3449;48.728;8.968;2023-08-20T10:10:43;5.40;;;4.63;;
6821;SDS011;3449;48.728;8.968;2023-08-20T10:13:12;6.47;;;4.80;;
6821;SDS011;3449;48.728;8.968;2023-08-20T10:15:40;9.23;;;4.63;;
6821;SDS011;3449;48.728;8.968;2023-08-20T10:18:08;7.40;;;4.50;;
6821;SDS011;3449;48.728;8.968;2023-08-20T10:20:38;7.60;;;4.90;;
6821;SDS011;3449;48.728;8.968;2023-08-20T10:23:06;5.80;;;4.83;;
6821;SDS011;3449;48.728;8.968;2023-08-20T10:25:39;6.03;;;4.53;;
6821;SDS011;3449;48.728;8.968;2023-08-20T10:28:11;9.43;;;5.40;;
6821;SDS011;3449;48.728;8.968;2023-08-20T10:30:39;6.93;;;4.80;;
6821;SDS011;3449;48.728;8.968;2023-08-20T10:33:31;8.27;;;4.63;;
6821;SDS011;3449;48.728;8.968;2023-08-20T10:36:06;7.27;;;4.37;;
6821;SDS011;3449;48.728;8.968;2023-08-20T10:38:35;8.13;;;6.17;;
6821;SDS011;3449;48.728;8.968;2023-08-20T10:41:05;8.43;;;5.00;;
6821;SDS011;3449;48.728;8.968;2023-08-20T10:43:33;6.57;;;5.03;;
6821;SDS011;3449;48.728;8.968;2023-08-20T10:48:51;6.33;;;4.10;;
6821;SDS011;3449;48.728;8.968;2023-08-20T10:51:20;5.20;;;4.70;;
6821;SDS011;3449;48.728;8.968;2023-08-20T10:54:04;5.10;;;4.00;;
6821;SDS011;3449;48.728;8.968;2023-08-20T10:56:39;5.30;;;4.10;;
6821;SDS011;3449;48.728;8.968;2023-08-20T10:59:07;6.77;;;4.77;;
6821;SDS011;3449;48.728;8.968;2023-08-20T11:01:35;5.80;;;3.87;;
6821;SDS011;3449;48.728;8.968;2023-08-20T11:04:04;12.00;;;4.20;;
6821;SDS011;3449;48.728;8.968;2023-08-20T11:06:32;6.67;;;5.53;;
6821;SDS011;3449;48.728;8.968;2023-08-20T11:09:00;6.90;;;4.53;;
6821;SDS011;3449;48.728;8.968;2023-08-20T11:11:30;4.00;;;3.30;;
6821;SDS011;3449;48.728;8.968;2023-08-20T11:14:00;8.93;;;5.10;;
6821;SDS011;3449;48.728;8.968;2023-08-20T11:16:31;9.30;;;4.93;;
6821;SDS011;3449;48.728;8.968;2023-08-20T11:18:58;5.20;;;3.97;;
6821;SDS011;3449;48.728;8.968;2023-08-20T11:21:26;6.57;;;4.17;;
6821;SDS011;3449;48.728;8.968;2023-08-20T11:23:54;4.27;;;3.80;;
6821;SDS011;3449;48.728;8.968;2023-08-20T11:26:21;4.40;;;3.80;;
6821;SDS011;3449;48.728;8.968;2023-08-20T11:28:48;4.67;;;3.70;;
6821;SDS011;3449;48.728;8.968;2023-08-20T11:31:15;4.50;;;3.77;;
6821;SDS011;3449;48.728;8.968;2023-08-20T11:33:42;6.20;;;4.83;;
6821;SDS011;3449;48.728;8.968;2023-08-20T11:36:09;10.10;;;3.87;;
6821;SDS011;3449;48.728;8.968;2023-08-20T11:38:37;5.00;;;4.50;;
6821;SDS011;3449;48.728;8.968;2023-08-20T11:41:04;4.57;;;4.10;;
6821;SDS011;3449;48.728;8.968;2023-08-20T11:43:31;5.10;;;3.93;;
6821;SDS011;3449;48.728;8.968;2023-08-20T11:45:59;5.90;;;4.27;;
6821;SDS011;3449;48.728;8.968;2023-08-20T11:48:26;8.47;;;4.73;;
6821;SDS011;3449;48.728;8.968;2023-08-20T11:50:53;6.30;;;4.00;;
6821;SDS011;3449;48.728;8.968;2023-08-20T11:53:23;6.10;;;4.00;;
6821;SDS011;3449;48.728;8.968;2023-08-20T11:55:51;5.07;;;4.20;;
6821;SDS011;3449;48.728;8.968;2023-08-20T11:58:20;6.63;;;4.73;;
6821;SDS011;3449;48.728;8.968;2023-08-20T12:00:54;4.30;;;3.80;;
6821;SDS011;3449;48.728;8.968;2023-08-20T12:03:30;5.20;;;4.63;;
6821;SDS011;3449;48.728;8.968;2023-08-20T12:06:18;6.70;;;4.80;;
6821;SDS011;3449;48.728;8.968;2023-08-20T12:08:48;4.90;;;4.27;;
6821;SDS011;3449;48.728;8.968;2023-08-20T12:11:16;4.40;;;3.77;;
6821;SDS011;3449;48.728;8.968;2023-08-20T12:13:43;6.60;;;4.37;;
6821;SDS011;3449;48.728;8.968;2023-08-20T12:16:10;4.63;;;3.90;;
6821;SDS011;3449;48.728;8.968;2023-08-20T12:18:38;6.57;;;4.70;;
6821;SDS011;3449;48.728;8.968;2023-08-20T12:21:11;6.20;;;4.00;;
6821;SDS011;3449;48.728;8.968;2023-08-20T12:23:37;4.73;;;4.33;;
6821;SDS011;3449;48.728;8.968;2023-08-20T12:26:04;5.53;;;4.90;;
6821;SDS011;3449;48.728;8.968;2023-08-20T12:28:34;5.93;;;4.23;;
6821;SDS011;3449;48.728;8.968;2023-08-20T12:31:01;4.73;;;4.07;;
6821;SDS011;3449;48.728;8.968;2023-08-20T12:33:28;5.10;;;4.53;;
6821;SDS011;3449;48.728;8.968;2023-08-20T12:35:55;6.80;;;4.27;;
6821;SDS011;3449;48.728;8.968;2023-08-20T12:38:22;6.47;;;4.43;;
6821;SDS011;3449;48.728;8.968;2023-08-20T12:40:49;7.23;;;4.13;;
6821;SDS011;3449;48.728;8.968;2023-08-20T12:43:15;5.77;;;5.10;;
6821;SDS011;3449;48.728;8.968;2023-08-20T12:45:45;5.17;;;4.40;;
6821;SDS011;3449;48.728;8.968;2023-08-20T12:48:12;5.20;;;4.40;;
6821;SDS011;3449;48.728;8.968;2023-08-20T12:50:38;12.57;;;4.23;;
6821;SDS011;3449;48.728;8.968;2023-08-20T12:53:05;7.47;;;4.97;;
6821;SDS011;3449;48.728;8.968;2023-08-20T12:55:32;5.83;;;5.10;;
6821;SDS011;3449;48.728;8.968;2023-08-20T12:57:59;4.30;;;3.90;;
6821;SDS011;3449;48.728;8.968;2023-08-20T13:00:26;7.97;;;6.20;;
6821;SDS011;3449;48.728;8.968;2023-08-20T13:02:55;5.67;;;4.03;;
6821;SDS011;3449;48.728;8.968;2023-08-20T13:05:23;4.50;;;4.10;;
6821;SDS011;3449;48.728;8.968;2023-08-20T13:07:51;5.07;;;3.90;;
6821;SDS011;3449;48.728;8.968;2023-08-20T13:10:19;4.73;;;4.27;;
6821;SDS011;3449;48.728;8.968;2023-08-20T13:12:47;4.50;;;4.10;;
6821;SDS011;3449;48.728;8.968;2023-08-20T13:15:15;5.50;;;4.13;;
6821;SDS011;3449;48.728;8.968;2023-08-20T13:17:44;4.83;;;4.33;;
6821;SDS011;3449;48.728;8.968;2023-08-20T13:20:14;7.23;;;4.50;;
6821;SDS011;3449;48.728;8.968;2023-08-20T13:22:46;5.00;;;4.60;;
6821;SDS011;3449;48.728;8.968;2023-08-20T13:25:13;6.80;;;4.70;;
6821;SDS011;3449;48.728;8.968;2023-08-20T13:27:40;7.23;;;4.83;;
6821;SDS011;3449;48.728;8.968;2023-08-20T13:30:07;8.00;;;4.50;;
6821;SDS011;3449;48.728;8.968;2023-08-20T13:32:35;5.77;;;4.90;;
6821;SDS011;3449;48.728;8.968;2023-08-20T13:35:01;7.10;;;4.40;;
6821;SDS011;3449;48.728;8.968;2023-08-20T13:37:30;7.80;;;4.90;;
6821;SDS011;3449;48.728;8.968;2023-08-20T13:39:58;7.70;;;4.70;;
6821;SDS011;3449;48.728;8.968;2023-08-20T13:42:24;5.70;;;4.83;;
6821;SDS011;3449;48.728;8.968;2023-08-20T13:44:51;4.87;;;4.37;;
6821;SDS011;3449;48.728;8.968;2023-08-20T13:47:18;10.50;;;5.20;;
6821;SDS011;3449;48.728;8.968;2023-08-20T13:49:45;4.50;;;4.10;;
6821;SDS011;3449;48.728;8.968;2023-08-20T13:52:12;4.87;;;4.13;;
6821;SDS011;3449;48.728;8.968;2023-08-20T13:54:40;7.30;;;4.40;;
6821;SDS011;3449;48.728;8.968;2023-08-20T13:57:07;3.87;;;3.27;;
6821;SDS011;3449;48.728;8.968;2023-08-20T13:59:34;5.10;;;4.57;;
6821;SDS011;3449;48.728;8.968;2023-08-20T14:02:01;5.17;;;3.70;;
6821;SDS011;3449;48.728;8.968;2023-08-20T14:04:28;5.90;;;4.10;;
6821;SDS011;3449;48.728;8.968;2023-08-20T14:06:54;4.90;;;4.30;;
6821;SDS011;3449;48.728;8.968;2023-08-20T14:09:21;4.30;;;3.90;;
6821;SDS011;3449;48.728;8.968;2023-08-20T14:11:49;5.87;;;4.73;;
6821;SDS011;3449;48.728;8.968;2023-08-20T14:14:16;4.27;;;3.97;;
6821;SDS011;3449;48.728;8.968;2023-08-20T14:16:43;7.57;;;4.50;;
6821;SDS011;3449;48.728;8.968;2023-08-20T14:19:10;4.40;;;4.00;;
6821;SDS011;3449;48.728;8.968;2023-08-20T14:21:37;9.53;;;4.63;;
6821;SDS011;3449;48.728;8.968;2023-08-20T14:24:04;5.20;;;4.70;;
6821;SDS011;3449;48.728;8.968;2023-08-20T14:26:31;5.07;;;4.33;;
6821;SDS011;3449;48.728;8.968;2023-08-20T14:28:59;5.40;;;4.50;;
6821;SDS011;3449;48.728;8.968;2023-08-20T14:31:27;6.73;;;4.33;;
6821;SDS011;3449;48.728;8.968;2023-08-20T14:33:54;5.73;;;4.57;;
6821;SDS011;3449;48.728;8.968;2023-08-20T14:36:21;8.17;;;5.20;;
6821;SDS011;3449;48.728;8.968;2023-08-20T14:38:47;4.23;;;3.83;;
6821;SDS011;3449;48.728;8.968;2023-08-20T14:41:14;4.43;;;4.03;;
6821;SDS011;3449;48.728;8.968;2023-08-20T14:43:41;9.50;;;4.70;;
6821;SDS011;3449;48.728;8.968;2023-08-20T14:46:09;5.97;;;3.77;;
6821;SDS011;3449;48.728;8.968;2023-08-20T14:48:36;8.30;;;4.23;;
6821;SDS011;3449;48.728;8.968;2023-08-20T14:51:06;10.67;;;4.20;;
6821;SDS011;3449;48.728;8.968;2023-08-20T14:53:33;7.97;;;4.47;;
6821;SDS011;3449;48.728;8.968;2023-08-20T14:55:59;8.70;;;4.80;;
6821;SDS011;3449;48.728;8.968;2023-08-20T14:58:28;8.13;;;3.80;;
6821;SDS011;3449;48.728;8.968;2023-08-20T15:00:55;6.10;;;3.60;;
6821;SDS011;3449;48.728;8.968;2023-08-20T15:03:23;8.17;;;4.10;;
6821;SDS011;3449;48.728;8.968;2023-08-20T15:05:50;13.80;;;4.53;;
6821;SDS011;3449;48.728;8.968;2023-08-20T15:08:17;7.10;;;4.27;;
6821;SDS011;3449;48.728;8.968;2023-08-20T15:10:45;5.43;;;3.87;;
6821;SDS011;3449;48.728;8.968;2023-08-20T15:13:21;7.63;;;5.20;;
6821;SDS011;3449;48.728;8.968;2023-08-20T15:15:50;9.10;;;4.27;;
6821;SDS011;3449;48.728;8.968;2023-08-20T15:18:17;10.23;;;3.83;;